Latest Weather Observations for Yanakie

IDV60801

Issued at 4:52 pm EDT Thursday 28 January 2021 (issued every 10 minutes, with the page automatically refreshed every 10 minutes)

About weather observations | Map of weather stations | Latest weather observations for VIC | Other Formats
Station Details ID: 085301 Name: YANAKIE Lat: -38.81 Lon: 146.19 Height: 13.3 m
Data from the previous 72 hours. | See also: Recent months at Yanakie
Date/Time
EDT
Temp
°C
App
Temp
°C
Dew
Point
°C
Rel
Hum
%
Delta-T
°C
Wind Press
QNH
hPa
Press
MSL
hPa
Rain since
9am
mm
Dir  Spd
km/h
Gust
km/h
Spd
kts
Gust
kts
28/04:30pm 19.6 12.9 13.5 68 3.5 ENE 41 69 22 37 1019.1 1019.0 0.0
28/04:00pm 19.7 13.5 13.9 69 3.3 E 39 65 21 35 1019.2 1019.1 0.0
28/03:30pm 19.7 14.0 14.1 70 3.2 E 37 67 20 36 1019.5 1019.4 0.0
28/03:00pm 19.3 13.5 13.9 71 3.1 E 37 57 20 31 1019.9 1019.8 0.0
28/02:30pm 19.2 12.9 13.4 69 3.3 E 39 65 21 35 1020.3 1020.2 0.0
28/02:00pm 19.5 13.6 13.7 69 3.3 E 37 61 20 33 1020.6 1020.5 0.0
28/01:30pm 19.0 13.6 13.8 72 3.0 E 35 57 19 31 1020.7 1020.6 0.0
28/01:00pm 19.6 13.8 13.8 69 3.3 E 37 59 20 32 1020.8 1020.7 0.0
28/12:30pm 19.7 13.9 13.9 69 3.3 E 37 65 20 35 1021.1 1021.0 0.0
28/12:00pm 19.4 13.4 13.3 68 3.5 E 37 57 20 31 1021.2 1021.1 0.0
28/11:30am 18.7 12.8 13.6 72 2.9 E 37 57 20 31 1021.1 1021.0 0.0
28/11:00am 18.1 12.3 13.8 76 2.4 ENE 37 57 20 31 1021.6 1021.5 0.0
28/10:32am 17.6 11.9 14.1 80 2.0 ENE 37 56 20 30 1021.8 1021.7 0.0
28/10:30am 17.6 11.1 14.1 80 2.0 ENE 41 56 22 30 1021.8 1021.7 0.0
28/10:00am 17.8 11.9 13.5 76 2.4 ENE 37 59 20 32 1021.9 1021.8 0.0
28/09:30am 17.4 11.2 13.9 80 2.0 ENE 39 63 21 34 1022.0 1021.9 0.0
28/09:00am 16.8 10.9 13.5 81 1.9 ENE 37 65 20 35 1021.5 1021.4 0.0
28/08:30am 16.6 9.9 13.5 82 1.7 ENE 41 63 22 34 1021.5 1021.4 0.0
28/08:00am 17.0 10.9 12.9 77 2.3 E 37 59 20 32 1021.1 1021.0 0.0
28/07:30am 16.9 11.1 12.8 77 2.3 E 35 56 19 30 1020.9 1020.8 0.0
28/07:00am 17.0 11.6 12.7 76 2.4 E 33 54 18 29 1020.7 1020.6 0.0
28/06:30am 17.1 11.8 12.6 75 2.5 E 32 50 17 27 1020.5 1020.4 0.0
28/06:05am 17.2 12.3 12.5 74 2.6 E 30 50 16 27 1020.3 1020.2 0.0
28/06:00am 17.3 12.0 12.6 74 2.6 E 32 50 17 27 1020.2 1020.1 0.0
28/05:30am 17.3 11.3 12.2 72 2.8 E 35 56 19 30 1019.7 1019.6 0.0
28/05:00am 17.4 12.0 12.1 71 2.9 E 32 50 17 27 1019.5 1019.4 0.0
28/04:30am 17.4 11.9 11.9 70 3.0 E 32 57 17 31 1019.5 1019.4 0.0
28/04:00am 17.3 11.2 11.8 70 3.0 E 35 56 19 30 1019.3 1019.2 0.0
28/03:30am 17.2 11.7 12.3 73 2.7 E 33 59 18 32 1019.7 1019.6 0.0
28/03:00am 17.3 11.4 11.1 67 3.3 E 33 54 18 29 1019.8 1019.7 0.0
28/02:30am 17.2 11.2 10.8 66 3.4 E 33 57 18 31 1020.0 1019.9 0.0
28/02:00am 17.3 11.6 11.3 68 3.2 E 32 56 17 30 1020.2 1020.1 0.0
28/01:30am 17.3 11.6 11.1 67 3.3 E 32 57 17 31 1020.1 1020.0 0.0
28/01:00am 17.4 11.9 11.7 69 3.1 E 32 56 17 30 1020.4 1020.3 0.0
28/12:30am 17.6 11.2 11.9 69 3.1 E 37 56 20 30 1020.4 1020.3 0.0
28/12:00am 17.5 12.6 12.4 72 2.8 E 30 54 16 29 1020.8 1020.7 0.0
 
Date/Time
EDT
Temp
°C
App
Temp
°C
Dew
Point
°C
Rel
Hum
%
Delta-T
°C
Wind Press
QNH
hPa
Press
MSL
hPa
Rain since
9am
mm
Dir  Spd
km/h
Gust
km/h
Spd
kts
Gust
kts
27/11:30pm 17.6 12.5 11.9 69 3.1 E 30 59 16 32 1020.9 1020.8 0.0
27/11:00pm 17.4 12.3 11.9 70 3.0 E 30 52 16 28 1020.8 1020.7 0.0
27/10:30pm 17.5 11.9 12.2 71 2.9 E 33 54 18 29 1020.4 1020.3 0.0
27/10:00pm 17.6 12.1 11.9 69 3.1 E 32 56 17 30 1020.4 1020.3 0.0
27/09:34pm 17.6 12.0 11.6 68 3.3 E 32 54 17 29 1019.8 1019.7 0.0
27/09:30pm 17.5 12.4 12.0 70 3.0 E 30 43 16 23 1019.8 1019.7 0.0
27/09:00pm 17.4 12.4 12.1 71 2.9 E 30 52 16 28 1019.3 1019.2 0.0
27/08:36pm 17.4 12.4 12.1 71 2.9 E 30 50 16 27 1018.9 1018.8 0.0
27/08:30pm 17.4 11.8 12.1 71 2.9 E 33 50 18 27 1018.8 1018.7 0.0
27/08:00pm 17.6 12.7 12.7 73 2.7 E 30 52 16 28 1018.9 1018.8 0.0
27/07:30pm 18.0 13.1 12.7 71 3.0 E 30 52 16 28 1018.5 1018.4 0.0
27/07:05pm 18.6 13.3 13.0 70 3.2 E 33 54 18 29 1018.2 1018.1 0.0
27/07:00pm 18.5 12.8 12.9 70 3.1 E 35 50 19 27 1018.1 1018.0 0.0
27/06:30pm 18.6 14.3 13.2 71 3.1 E 28 48 15 26 1018.0 1017.9 0.0
27/06:03pm 18.8 13.2 13.2 70 3.2 E 35 61 19 33 1017.5 1017.4 0.0
27/06:00pm 19.1 13.9 13.5 70 3.2 E 33 52 18 28 1017.6 1017.5 0.0
27/05:30pm 19.2 14.1 13.8 71 3.1 E 33 54 18 29 1017.6 1017.5 0.0
27/05:00pm 20.1 15.2 13.6 66 3.7 E 32 56 17 30 1017.6 1017.5 0.0
27/04:30pm 20.2 15.1 13.6 66 3.8 E 33 52 18 28 1017.5 1017.4 0.0
27/04:00pm 20.4 15.2 13.4 64 4.0 E 33 52 18 28 1017.4 1017.3 0.0
27/03:30pm 20.6 15.0 13.3 63 4.2 E 35 54 19 29 1017.3 1017.2 0.0
27/03:00pm 20.6 14.9 13.1 62 4.3 E 35 61 19 33 1017.2 1017.1 0.0
27/02:30pm 20.9 15.2 13.1 61 4.4 E 35 54 19 29 1017.1 1017.0 0.0
27/02:00pm 21.6 17.2 14.0 62 4.4 E 30 57 16 31 1017.0 1016.9 0.0
27/01:41pm 21.6 17.9 15.0 66 3.9 E 28 46 15 25 1017.1 1017.0 0.0
27/01:30pm 20.8 16.1 14.2 66 3.8 E 32 48 17 26 1017.1 1017.0 0.0
27/01:04pm 19.4 15.5 14.4 73 2.9 E 28 46 15 25 1017.2 1017.1 0.0
27/01:00pm 21.2 17.0 14.6 66 3.9 E 30 46 16 25 1017.2 1017.1 0.0
27/12:55pm 20.4 16.5 14.3 68 3.5 ENE 28 46 15 25 1017.2 1017.1 0.0
27/12:30pm 20.6 18.0 13.1 62 4.3 E 19 30 10 16 1017.3 1017.2 0.0
27/12:00pm 20.5 18.9 12.7 61 4.4 E 13 22 7 12 1017.3 1017.2 0.0
27/11:30am 20.1 19.2 12.6 62 4.2 S 9 13 5 7 1017.1 1017.0 0.0
27/11:00am 19.4 18.6 11.7 61 4.2 SSW 7 15 4 8 1016.9 1016.8 0.0
27/10:30am 17.9 17.3 10.3 61 4.1 SSW 4 7 2 4 1016.9 1016.8 0.0
27/10:00am 17.5 16.5 10.4 63 3.8 S 6 9 3 5 1016.8 1016.7 0.0
27/09:30am 17.0 15.9 9.9 63 3.7 SSE 6 11 3 6 1016.6 1016.5 0.0
27/09:00am 16.0 14.7 9.2 64 3.5 S 6 9 3 5 1016.6 1016.5 0.2
27/08:30am 16.0 14.6 9.0 63 3.6 SSW 6 9 3 5 1016.3 1016.2 0.2
27/08:00am 15.6 15.0 8.8 64 3.5 S 2 4 1 2 1015.9 1015.8 0.2
27/07:30am 14.6 14.0 9.0 69 2.9 S 2 4 1 2 1015.6 1015.5 0.2
27/07:00am 13.7 12.1 7.9 68 2.9 S 6 9 3 5 1014.9 1014.8 0.2
27/06:30am 13.2 11.5 7.6 69 2.7 S 6 9 3 5 1014.5 1014.4 0.2
27/06:00am 13.6 11.1 8.0 69 2.8 SSW 11 17 6 9 1014.2 1014.1 0.2
27/05:30am 13.5 10.9 7.9 69 2.8 SSW 11 17 6 9 1013.8 1013.7 0.2
27/05:00am 13.5 10.5 7.5 67 2.9 SSW 13 22 7 12 1013.5 1013.4 0.2
27/04:30am 13.3 9.1 7.3 67 2.9 SSW 19 28 10 15 1013.4 1013.3 0.2
27/04:00am 13.4 8.7 7.6 68 2.8 SW 22 28 12 15 1013.2 1013.1 0.2
27/03:30am 13.5 9.0 6.8 64 3.2 SSW 20 30 11 16 1013.2 1013.1 0.2
27/03:00am 13.7 9.4 7.2 65 3.2 SSW 19 28 10 15 1012.9 1012.8 0.2
27/02:30am 13.3 8.9 6.6 64 3.2 SSW 19 28 10 15 1012.7 1012.6 0.2
27/02:00am 13.8 9.5 7.8 67 3.0 SW 20 28 11 15 1012.6 1012.5 0.2
27/01:30am 13.6 8.4 7.2 65 3.1 SW 24 32 13 17 1012.5 1012.4 0.2
27/01:00am 13.9 9.3 8.1 68 2.9 SW 22 33 12 18 1012.4 1012.3 0.2
27/12:30am 13.5 9.1 7.3 66 3.0 SW 20 30 11 16 1012.2 1012.1 0.2
27/12:00am 13.9 8.9 7.9 67 3.0 SW 24 37 13 20 1012.0 1011.9 0.2
 
Date/Time
EDT
Temp
°C
App
Temp
°C
Dew
Point
°C
Rel
Hum
%
Delta-T
°C
Wind Press
QNH
hPa
Press
MSL
hPa
Rain since
9am
mm
Dir  Spd
km/h
Gust
km/h
Spd
kts
Gust
kts
26/11:30pm 14.0 8.5 7.5 65 3.2 SW 26 41 14 22 1011.8 1011.7 0.2
26/11:00pm 13.6 8.9 7.6 67 2.9 SW 22 33 12 18 1011.6 1011.5 0.2
26/10:30pm 14.0 9.1 8.4 69 2.8 SW 24 32 13 17 1011.4 1011.3 0.2
26/10:00pm 14.2 8.9 8.6 69 2.8 SW 26 33 14 18 1011.0 1010.9 0.2
26/09:30pm 14.3 9.0 8.3 67 3.0 WSW 26 35 14 19 1010.6 1010.5 0.2
26/09:00pm 14.8 9.2 8.7 67 3.1 WSW 28 37 15 20 1010.2 1010.1 0.2
26/08:30pm 15.4 10.8 9.7 69 3.0 SW 24 35 13 19 1009.6 1009.5 0.2
26/08:00pm 15.9 10.7 10.2 69 3.0 SW 28 39 15 21 1009.0 1008.9 0.2
26/07:30pm 16.5 11.7 10.4 67 3.2 SW 26 33 14 18 1008.3 1008.2 0.2
26/07:00pm 16.9 12.0 11.2 69 3.1 SW 28 41 15 22 1007.6 1007.5 0.2
26/06:30pm 17.4 12.5 11.4 68 3.3 SW 28 39 15 21 1007.2 1007.1 0.2
26/06:00pm 17.6 12.0 11.4 67 3.4 SW 32 41 17 22 1006.8 1006.7 0.2
26/05:30pm 19.1 13.2 12.4 65 3.7 SW 35 46 19 25 1006.4 1006.3 0.2
26/05:00pm 19.5 14.7 13.0 66 3.7 SW 30 39 16 21 1006.1 1006.0 0.2
26/04:30pm 20.2 15.0 12.7 62 4.2 SW 32 41 17 22 1005.7 1005.6 0.2
26/04:00pm 19.9 16.5 13.6 67 3.6 SW 24 32 13 17 1005.4 1005.3 0.2
26/03:30pm 19.4 15.1 13.3 68 3.5 SW 28 37 15 20 1005.2 1005.1 0.2
26/03:00pm 18.5 14.6 13.4 72 2.9 SW 26 35 14 19 1005.2 1005.1 0.2
26/02:30pm 19.0 15.0 14.1 73 2.8 WSW 28 39 15 21 1005.0 1004.9 0.2
26/02:00pm 20.5 16.0 13.9 66 3.8 SW 30 39 16 21 1004.7 1004.6 0.2
26/01:30pm 18.7 14.6 13.8 73 2.8 SW 28 35 15 19 1004.5 1004.4 0.2
26/01:00pm 19.9 15.4 13.8 68 3.5 SW 30 39 16 21 1004.1 1004.0 0.2
26/12:30pm 18.8 14.7 14.9 78 2.3 SW 30 39 16 21 1003.6 1003.5 0.2
26/12:00pm 18.7 15.0 15.0 79 2.2 SW 28 37 15 20 1003.2 1003.1 0.2
26/11:30am 18.8 15.9 16.0 84 1.7 SW 26 33 14 18 1002.7 1002.6 0.2
26/11:00am 17.1 14.6 16.1 94 0.6 SW 24 37 13 20 1002.5 1002.4 0.2
26/10:30am 17.4 15.4 16.4 94 0.6 SW 22 30 12 16 1002.3 1002.2 0.2
26/10:00am 17.2 15.3 16.7 97 0.3 SW 22 26 12 14 1001.9 1001.8 0.2
26/09:30am 17.2 15.9 16.9 98 0.2 SSW 19 26 10 14 1001.7 1001.6 0.2
26/09:00am 17.2 15.8 16.9 98 0.2 SSW 20 30 11 16 1001.2 1001.1 3.0
26/08:30am 17.3 16.5 17.0 98 0.2 SSW 17 24 9 13 1000.7 1000.6 2.6
26/08:00am 17.1 16.1 16.6 97 0.3 S 17 30 9 16 999.9 999.8 1.4
26/07:30am 17.4 16.9 16.9 97 0.3 S 15 24 8 13 999.2 999.1 0.6
26/07:00am 17.5 16.7 17.0 97 0.3 SSW 17 24 9 13 999.0 998.9 0.4
26/06:30am 17.6 17.2 17.1 97 0.3 SSW 15 24 8 13 998.0 997.9 0.4
26/06:00am 17.8 16.7 17.3 97 0.3 SSW 19 26 10 14 997.8 997.7 0.4
26/05:30am 18.3 17.8 17.7 96 0.4 S 17 24 9 13 997.1 997.0 0.2
26/05:00am 18.7 17.9 17.9 95 0.5 SW 19 24 10 13 997.4 997.3 0.2
26/04:30am 19.7 19.3 18.0 90 1.0 SW 17 30 9 16 997.2 997.1 0.2
26/04:00am 20.1 22.8 17.7 86 1.5 CALM 0 0 0 0 996.5 996.4 0.2
26/03:30am 20.5 22.0 17.5 83 1.8 NE 6 9 3 5 996.8 996.7 0.2
26/03:00am 20.4 21.7 17.6 84 1.7 NNE 7 13 4 7 997.3 997.2 0.2
26/02:30am 19.8 21.2 17.8 88 1.2 NNE 7 11 4 6 997.5 997.4 0.2
26/02:00am 19.1 20.3 17.4 90 1.0 N 7 11 4 6 998.1 998.0 0.2
26/01:30am 19.1 21.3 17.4 90 1.0 ESE 2 4 1 2 997.8 997.7 0.2
26/01:00am 18.7 19.5 17.2 91 0.9 NE 9 13 5 7 998.1 998.0 0.2
26/12:30am 18.6 19.4 17.4 93 0.7 NNW 9 11 5 6 999.4 999.3 0.2
26/12:00am 18.9 20.4 17.7 93 0.7 NNE 6 17 3 9 998.9 998.8 0.0
 
Date/Time
EDT
Temp
°C
App
Temp
°C
Dew
Point
°C
Rel
Hum
%
Delta-T
°C
Wind Press
QNH
hPa
Press
MSL
hPa
Rain since
9am
mm
Dir  Spd
km/h
Gust
km/h
Spd
kts
Gust
kts
25/11:30pm 18.9 19.8 17.6 92 0.8 NNW 9 11 5 6 999.5 999.4 0.0
25/11:00pm 19.1 20.4 17.2 89 1.2 S 6 9 3 5 999.5 999.4 0.0
25/10:30pm 19.4 19.9 17.4 88 1.2 SW 11 20 6 11 1000.2 1000.1 0.0
25/10:00pm 19.5 20.1 16.9 85 1.6 SSW 9 13 5 7 1000.0 999.9 0.0
25/09:30pm 19.4 19.7 17.0 86 1.5 SW 11 17 6 9 1000.1 1000.0 0.0
25/09:00pm 19.4 20.7 17.0 86 1.5 S 6 7 3 4 999.6 999.5 0.0
25/08:30pm 19.6 20.4 17.2 86 1.5 SSW 9 15 5 8 999.3 999.2 0.0
25/08:00pm 20.1 18.9 17.1 83 1.8 SW 19 24 10 13 998.8 998.7 0.0
25/07:30pm 20.6 19.8 17.0 80 2.2 SW 17 24 9 13 998.6 998.5 0.0
25/07:00pm 21.4 20.3 16.4 73 3.0 SW 17 24 9 13 998.7 998.6 0.0
25/06:30pm 21.9 20.1 16.0 69 3.6 WSW 20 32 11 17 998.8 998.7 0.0
25/06:00pm 22.0 19.5 16.1 69 3.6 SW 24 32 13 17 998.4 998.3 0.0
25/05:30pm 22.2 20.9 15.8 67 3.8 WSW 17 28 9 15 998.5 998.4 0.0
25/05:00pm 23.4 20.9 15.2 60 4.9 WSW 22 32 12 17 998.7 998.6 0.0

Other formats

Comma delimited format used in spreadsheet applications
http://www.bom.gov.au/fwo/IDV60801/IDV60801.94911.axf

JavaScript Object Notation format (JSON) in row-major order
http://www.bom.gov.au/fwo/IDV60801/IDV60801.94911.json

Data quality

Most of these data are generated automatically and are frequently updated. Quality checks on data are not normally performed. It is possible for incorrect values to appear. Refer to information at About Latest Weather Observations and please check the disclaimer before using these data.